PWSweather.com
Personal Weather Stations
Station Observations

YeovilGB

Lat: 50.949, Lon: -2.627

Elevation: 70

Station Type: Vantage Pro

http://www.yeovil-weather.me.uk/

High Low Average
Temperature 48.6°F9.2°C 39.0°F3.9°C 42.6°F5.9°C
Dew Point 42.5°F5.8°C 34.8°F1.6°C 37.2°F2.9°C
Winds 10.4 mph 16.7 kmh Calm Calm 2.0 mph S3.2 kmh S
Wind Gusts 16.1 mph25.9 kmh -- 4.0 mph6.4 kmh
Humidity 96% 65% 82%
Pressure 29.92 in1013.2 mb 29.65 in1004.1 mb -
Precipitation 0.22 in5.6 mm - -
Hour Temp Dew Point Humidity Winds Wind Gusts Pressure Precip Precip Rate Daily Precip Total
12:00 AM 42.1°F5.6°C 38.2°F3.4°C 86% Calm Calm -- 29.80 in1009.1 mb - 0.00 in0.0 mm 0.00 in0.0 mm
12:10 AM 42.0°F5.6°C 38.1°F3.4°C 86% 1.2 mph NW1.9 kmh NW 3.5 mph5.6 kmh 29.80 in1009.1 mb - 0.00 in0.0 mm 0.00 in0.0 mm
12:20 AM 42.0°F5.6°C 38.4°F3.6°C 87% 3.5 mph NW5.6 kmh NW 8.1 mph13.0 kmh 29.81 in1009.5 mb - 0.00 in0.0 mm 0.00 in0.0 mm
12:30 AM 41.9°F5.5°C 38.0°F3.3°C 86% 2.3 mph NW3.7 kmh NW 4.6 mph7.4 kmh 29.81 in1009.5 mb - 0.00 in0.0 mm 0.00 in0.0 mm
12:40 AM 41.8°F5.4°C 37.6°F3.1°C 85% 1.2 mph NNW1.9 kmh NNW 4.6 mph7.4 kmh 29.81 in1009.5 mb - 0.00 in0.0 mm 0.00 in0.0 mm
12:50 AM 41.7°F5.4°C 37.2°F2.9°C 84% 2.3 mph NNW3.7 kmh NNW 6.9 mph11.1 kmh 29.81 in1009.5 mb - 0.00 in0.0 mm 0.00 in0.0 mm
01:00 AM 41.6°F5.3°C 36.8°F2.7°C 83% 4.6 mph N7.4 kmh N 6.9 mph11.1 kmh 29.81 in1009.5 mb - 0.00 in0.0 mm 0.00 in0.0 mm
01:10 AM 41.5°F5.3°C 36.4°F2.4°C 82% 1.2 mph NNW1.9 kmh NNW 2.3 mph3.7 kmh 29.82 in1009.8 mb - 0.00 in0.0 mm 0.00 in0.0 mm
01:20 AM 41.4°F5.2°C 36.6°F2.6°C 83% 1.2 mph NNW1.9 kmh NNW 2.3 mph3.7 kmh 29.82 in1009.8 mb - 0.00 in0.0 mm 0.00 in0.0 mm
01:30 AM 41.3°F5.2°C 36.2°F2.3°C 82% Calm Calm -- 29.82 in1009.8 mb - 0.00 in0.0 mm 0.00 in0.0 mm
01:40 AM 41.3°F5.2°C 36.5°F2.5°C 83% Calm Calm -- 29.83 in1010.2 mb - 0.00 in0.0 mm 0.00 in0.0 mm
01:50 AM 41.2°F5.1°C 36.4°F2.4°C 83% Calm Calm -- 29.83 in1010.2 mb - 0.00 in0.0 mm 0.00 in0.0 mm
02:00 AM 41.1°F5.1°C 36.3°F2.4°C 83% Calm Calm -- 29.83 in1010.2 mb - 0.00 in0.0 mm 0.00 in0.0 mm
02:10 AM 41.1°F5.1°C 36.3°F2.4°C 83% Calm Calm -- 29.83 in1010.2 mb - 0.00 in0.0 mm 0.00 in0.0 mm
02:20 AM 41.0°F5.0°C 36.2°F2.3°C 83% Calm Calm -- 29.84 in1010.5 mb - 0.00 in0.0 mm 0.00 in0.0 mm
02:30 AM 41.0°F5.0°C 36.5°F2.5°C 84% Calm Calm 3.5 mph5.6 kmh 29.84 in1010.5 mb - 0.00 in0.0 mm 0.00 in0.0 mm
02:40 AM 40.9°F4.9°C 36.5°F2.5°C 84% Calm Calm -- 29.84 in1010.5 mb - 0.00 in0.0 mm 0.00 in0.0 mm
02:50 AM 40.9°F4.9°C 36.4°F2.4°C 84% Calm Calm -- 29.84 in1010.5 mb - 0.00 in0.0 mm 0.00 in0.0 mm
03:00 AM 40.8°F4.9°C 36.3°F2.4°C 84% Calm Calm -- 29.84 in1010.5 mb - 0.00 in0.0 mm 0.00 in0.0 mm
03:10 AM 40.8°F4.9°C 36.3°F2.4°C 84% Calm Calm -- 29.84 in1010.5 mb - 0.00 in0.0 mm 0.00 in0.0 mm
03:20 AM 40.6°F4.8°C 36.1°F2.3°C 84% Calm Calm -- 29.84 in1010.5 mb - 0.00 in0.0 mm 0.00 in0.0 mm
03:30 AM 40.5°F4.7°C 36.1°F2.3°C 84% Calm Calm -- 29.85 in1010.8 mb - 0.00 in0.0 mm 0.00 in0.0 mm
03:40 AM 40.5°F4.7°C 36.0°F2.2°C 84% Calm Calm -- 29.85 in1010.8 mb - 0.00 in0.0 mm 0.00 in0.0 mm
03:50 AM 40.4°F4.7°C 35.9°F2.2°C 84% Calm Calm -- 29.85 in1010.8 mb - 0.00 in0.0 mm 0.00 in0.0 mm
04:00 AM 40.4°F4.7°C 35.9°F2.2°C 84% Calm Calm -- 29.85 in1010.8 mb - 0.00 in0.0 mm 0.00 in0.0 mm
04:10 AM 40.3°F4.6°C 35.8°F2.1°C 84% Calm Calm -- 29.85 in1010.8 mb - 0.00 in0.0 mm 0.00 in0.0 mm
04:20 AM 40.2°F4.6°C 35.8°F2.1°C 84% 1.2 mph NW1.9 kmh NW 3.5 mph5.6 kmh 29.85 in1010.8 mb - 0.00 in0.0 mm 0.00 in0.0 mm
04:30 AM 40.1°F4.5°C 35.7°F2.1°C 84% Calm Calm 1.2 mph1.9 kmh 29.85 in1010.8 mb - 0.00 in0.0 mm 0.00 in0.0 mm
04:40 AM 39.9°F4.4°C 35.5°F1.9°C 84% Calm Calm -- 29.85 in1010.8 mb - 0.00 in0.0 mm 0.00 in0.0 mm
04:50 AM 39.8°F4.3°C 35.7°F2.1°C 85% Calm Calm -- 29.85 in1010.8 mb - 0.00 in0.0 mm 0.00 in0.0 mm
05:00 AM 39.7°F4.3°C 35.9°F2.2°C 86% Calm Calm -- 29.86 in1011.2 mb - 0.00 in0.0 mm 0.00 in0.0 mm
05:10 AM 39.6°F4.2°C 35.8°F2.1°C 86% Calm Calm -- 29.87 in1011.5 mb - 0.00 in0.0 mm 0.00 in0.0 mm
05:20 AM 39.6°F4.2°C 35.8°F2.1°C 86% Calm Calm -- 29.87 in1011.5 mb - 0.00 in0.0 mm 0.00 in0.0 mm
05:30 AM 39.5°F4.2°C 36.0°F2.2°C 87% Calm Calm -- 29.87 in1011.5 mb - 0.00 in0.0 mm 0.00 in0.0 mm
05:40 AM 39.5°F4.2°C 35.9°F2.2°C 87% Calm Calm -- 29.88 in1011.9 mb - 0.00 in0.0 mm 0.00 in0.0 mm
05:50 AM 39.4°F4.1°C 35.9°F2.2°C 87% Calm Calm -- 29.88 in1011.9 mb - 0.00 in0.0 mm 0.00 in0.0 mm
06:00 AM 39.4°F4.1°C 35.9°F2.2°C 87% Calm Calm -- 29.88 in1011.9 mb - 0.00 in0.0 mm 0.00 in0.0 mm
06:10 AM 39.4°F4.1°C 35.9°F2.2°C 87% Calm Calm -- 29.88 in1011.9 mb - 0.00 in0.0 mm 0.00 in0.0 mm
06:20 AM 39.5°F4.2°C 35.9°F2.2°C 87% Calm Calm -- 29.88 in1011.9 mb - 0.00 in0.0 mm 0.00 in0.0 mm
06:30 AM 39.5°F4.2°C 36.0°F2.2°C 87% Calm Calm -- 29.88 in1011.9 mb - 0.00 in0.0 mm 0.00 in0.0 mm
06:40 AM 39.6°F4.2°C 36.0°F2.2°C 87% Calm Calm -- 29.88 in1011.9 mb - 0.00 in0.0 mm 0.00 in0.0 mm
06:50 AM 39.7°F4.3°C 36.1°F2.3°C 87% Calm Calm -- 29.89 in1012.2 mb - 0.00 in0.0 mm 0.00 in0.0 mm
07:00 AM 39.9°F4.4°C 36.3°F2.4°C 87% Calm Calm -- 29.89 in1012.2 mb - 0.00 in0.0 mm 0.00 in0.0 mm
07:10 AM 40.3°F4.6°C 36.7°F2.6°C 87% Calm Calm -- 29.90 in1012.5 mb - 0.00 in0.0 mm 0.00 in0.0 mm
07:20 AM 40.7°F4.8°C 37.1°F2.8°C 87% Calm Calm -- 29.90 in1012.5 mb - 0.00 in0.0 mm 0.00 in0.0 mm
07:30 AM 41.2°F5.1°C 37.0°F2.8°C 85% Calm Calm -- 29.90 in1012.5 mb - 0.00 in0.0 mm 0.00 in0.0 mm
07:40 AM 41.8°F5.4°C 37.0°F2.8°C 83% Calm Calm -- 29.90 in1012.5 mb - 0.00 in0.0 mm 0.00 in0.0 mm
07:50 AM 42.2°F5.7°C 35.8°F2.1°C 78% Calm Calm -- 29.90 in1012.5 mb - 0.00 in0.0 mm 0.00 in0.0 mm
08:00 AM 42.4°F5.8°C 35.0°F1.7°C 75% Calm Calm -- 29.91 in1012.9 mb - 0.00 in0.0 mm 0.00 in0.0 mm
08:10 AM 42.8°F6.0°C 35.4°F1.9°C 75% Calm Calm -- 29.91 in1012.9 mb - 0.00 in0.0 mm 0.00 in0.0 mm
08:20 AM 43.3°F6.3°C 35.6°F2.0°C 74% Calm Calm -- 29.91 in1012.9 mb - 0.00 in0.0 mm 0.00 in0.0 mm
08:30 AM 43.7°F6.5°C 36.3°F2.4°C 75% Calm Calm 3.5 mph5.6 kmh 29.91 in1012.9 mb - 0.00 in0.0 mm 0.00 in0.0 mm
08:40 AM 44.5°F6.9°C 37.4°F3.0°C 76% 2.3 mph N3.7 kmh N 5.8 mph9.3 kmh 29.90 in1012.5 mb - 0.00 in0.0 mm 0.00 in0.0 mm
08:50 AM 44.7°F7.1°C 35.9°F2.2°C 71% Calm Calm -- 29.91 in1012.9 mb - 0.00 in0.0 mm 0.00 in0.0 mm
09:00 AM 44.4°F6.9°C 35.6°F2.0°C 71% Calm Calm -- 29.91 in1012.9 mb - 0.00 in0.0 mm 0.00 in0.0 mm
09:10 AM 44.4°F6.9°C 34.8°F1.6°C 69% Calm Calm -- 29.91 in1012.9 mb - 0.00 in0.0 mm 0.00 in0.0 mm
09:20 AM 44.5°F6.9°C 35.3°F1.8°C 70% Calm Calm -- 29.91 in1012.9 mb - 0.00 in0.0 mm 0.00 in0.0 mm
09:30 AM 44.7°F7.1°C 34.8°F1.6°C 68% Calm Calm -- 29.91 in1012.9 mb - 0.00 in0.0 mm 0.00 in0.0 mm
09:40 AM 44.8°F7.1°C 34.9°F1.6°C 68% 2.3 mph NNE3.7 kmh NNE 3.5 mph5.6 kmh 29.92 in1013.2 mb - 0.00 in0.0 mm 0.00 in0.0 mm
09:50 AM 45.2°F7.3°C 35.3°F1.8°C 68% 1.2 mph NNE1.9 kmh NNE 2.3 mph3.7 kmh 29.92 in1013.2 mb - 0.00 in0.0 mm 0.00 in0.0 mm
10:00 AM 45.7°F7.6°C 35.4°F1.9°C 67% Calm Calm -- 29.91 in1012.9 mb - 0.00 in0.0 mm 0.00 in0.0 mm
10:10 AM 45.8°F7.7°C 35.8°F2.1°C 68% Calm Calm -- 29.92 in1013.2 mb - 0.00 in0.0 mm 0.00 in0.0 mm
10:20 AM 45.9°F7.7°C 35.5°F1.9°C 67% Calm Calm -- 29.92 in1013.2 mb - 0.00 in0.0 mm 0.00 in0.0 mm
10:30 AM 46.5°F8.1°C 36.5°F2.5°C 68% 1.2 mph S1.9 kmh S 3.5 mph5.6 kmh 29.92 in1013.2 mb - 0.00 in0.0 mm 0.00 in0.0 mm
10:40 AM 46.6°F8.1°C 35.5°F1.9°C 65% Calm Calm -- 29.92 in1013.2 mb - 0.00 in0.0 mm 0.00 in0.0 mm
10:50 AM 46.6°F8.1°C 35.8°F2.1°C 66% Calm Calm -- 29.92 in1013.2 mb - 0.00 in0.0 mm 0.00 in0.0 mm
11:00 AM 46.5°F8.1°C 36.1°F2.3°C 67% 2.3 mph SSE3.7 kmh SSE 4.6 mph7.4 kmh 29.92 in1013.2 mb - 0.00 in0.0 mm 0.00 in0.0 mm
11:10 AM 46.6°F8.1°C 36.2°F2.3°C 67% 1.2 mph E1.9 kmh E 3.5 mph5.6 kmh 29.92 in1013.2 mb - 0.00 in0.0 mm 0.00 in0.0 mm
11:20 AM 46.5°F8.1°C 35.7°F2.1°C 66% Calm Calm 2.3 mph3.7 kmh 29.92 in1013.2 mb - 0.00 in0.0 mm 0.00 in0.0 mm
11:30 AM 46.6°F8.1°C 36.2°F2.3°C 67% Calm Calm -- 29.92 in1013.2 mb - 0.00 in0.0 mm 0.00 in0.0 mm
11:40 AM 46.8°F8.2°C 36.4°F2.4°C 67% 3.5 mph E5.6 kmh E 4.6 mph7.4 kmh 29.91 in1012.9 mb - 0.00 in0.0 mm 0.00 in0.0 mm
11:50 AM 47.0°F8.3°C 37.0°F2.8°C 68% Calm Calm 1.2 mph1.9 kmh 29.91 in1012.9 mb - 0.00 in0.0 mm 0.00 in0.0 mm
12:00 PM 47.6°F8.7°C 36.8°F2.7°C 66% 2.3 mph SE3.7 kmh SE 4.6 mph7.4 kmh 29.91 in1012.9 mb - 0.00 in0.0 mm 0.00 in0.0 mm
12:10 PM 47.9°F8.8°C 37.5°F3.1°C 67% Calm Calm 3.5 mph5.6 kmh 29.90 in1012.5 mb - 0.00 in0.0 mm 0.00 in0.0 mm
12:20 PM 48.4°F9.1°C 37.1°F2.8°C 65% 2.3 mph SE3.7 kmh SE 8.1 mph13.0 kmh 29.91 in1012.9 mb - 0.00 in0.0 mm 0.00 in0.0 mm
12:30 PM 48.4°F9.1°C 37.2°F2.9°C 65% 2.3 mph SE3.7 kmh SE 5.8 mph9.3 kmh 29.90 in1012.5 mb - 0.00 in0.0 mm 0.00 in0.0 mm
12:40 PM 48.4°F9.1°C 37.2°F2.9°C 65% 2.3 mph ENE3.7 kmh ENE 5.8 mph9.3 kmh 29.90 in1012.5 mb - 0.00 in0.0 mm 0.00 in0.0 mm
12:50 PM 48.6°F9.2°C 37.4°F3.0°C 65% 5.8 mph E9.3 kmh E 6.9 mph11.1 kmh 29.90 in1012.5 mb - 0.00 in0.0 mm 0.00 in0.0 mm
01:00 PM 48.2°F9.0°C 37.0°F2.8°C 65% 3.5 mph SE5.6 kmh SE 6.9 mph11.1 kmh 29.90 in1012.5 mb - 0.00 in0.0 mm 0.00 in0.0 mm
01:10 PM 48.2°F9.0°C 37.8°F3.2°C 67% 1.2 mph E1.9 kmh E 4.6 mph7.4 kmh 29.90 in1012.5 mb - 0.00 in0.0 mm 0.00 in0.0 mm
01:20 PM 48.1°F8.9°C 37.3°F2.9°C 66% Calm Calm 3.5 mph5.6 kmh 29.89 in1012.2 mb - 0.00 in0.0 mm 0.00 in0.0 mm
01:30 PM 47.8°F8.8°C 37.4°F3.0°C 67% 1.2 mph NE1.9 kmh NE 8.1 mph13.0 kmh 29.89 in1012.2 mb - 0.00 in0.0 mm 0.00 in0.0 mm
01:40 PM 47.5°F8.6°C 37.1°F2.8°C 67% Calm Calm 1.2 mph1.9 kmh 29.89 in1012.2 mb - 0.00 in0.0 mm 0.00 in0.0 mm
01:50 PM 47.2°F8.4°C 37.2°F2.9°C 68% 1.2 mph E1.9 kmh E 6.9 mph11.1 kmh 29.88 in1011.9 mb - 0.00 in0.0 mm 0.00 in0.0 mm
02:00 PM 47.0°F8.3°C 37.0°F2.8°C 68% 2.3 mph E3.7 kmh E 4.6 mph7.4 kmh 29.88 in1011.9 mb - 0.00 in0.0 mm 0.00 in0.0 mm
02:10 PM 46.9°F8.3°C 37.3°F2.9°C 69% 2.3 mph SE3.7 kmh SE 6.9 mph11.1 kmh 29.88 in1011.9 mb - 0.00 in0.0 mm 0.00 in0.0 mm
02:20 PM 46.9°F8.3°C 37.6°F3.1°C 70% 1.2 mph SSE1.9 kmh SSE 4.6 mph7.4 kmh 29.88 in1011.9 mb - 0.00 in0.0 mm 0.00 in0.0 mm
02:30 PM 46.9°F8.3°C 37.6°F3.1°C 70% 4.6 mph SSE7.4 kmh SSE 9.2 mph14.8 kmh 29.87 in1011.5 mb - 0.00 in0.0 mm 0.00 in0.0 mm
02:40 PM 46.8°F8.2°C 37.9°F3.3°C 71% 4.6 mph SE7.4 kmh SE 6.9 mph11.1 kmh 29.87 in1011.5 mb - 0.00 in0.0 mm 0.00 in0.0 mm
02:50 PM 46.7°F8.2°C 38.2°F3.4°C 72% 2.3 mph SSE3.7 kmh SSE 6.9 mph11.1 kmh 29.87 in1011.5 mb - 0.00 in0.0 mm 0.00 in0.0 mm
03:00 PM 46.8°F8.2°C 37.9°F3.3°C 71% 2.3 mph SE3.7 kmh SE 5.8 mph9.3 kmh 29.87 in1011.5 mb - 0.00 in0.0 mm 0.00 in0.0 mm
03:10 PM 46.7°F8.2°C 37.8°F3.2°C 71% 4.6 mph SSE7.4 kmh SSE 8.1 mph13.0 kmh 29.87 in1011.5 mb - 0.00 in0.0 mm 0.00 in0.0 mm
03:20 PM 46.4°F8.0°C 37.5°F3.1°C 71% 1.2 mph SE1.9 kmh SE 3.5 mph5.6 kmh 29.86 in1011.2 mb - 0.00 in0.0 mm 0.00 in0.0 mm
03:30 PM 46.3°F7.9°C 37.4°F3.0°C 71% 4.6 mph S7.4 kmh S 10.4 mph16.7 kmh 29.86 in1011.2 mb - 0.00 in0.0 mm 0.00 in0.0 mm
03:40 PM 45.9°F7.7°C 37.7°F3.2°C 73% 3.5 mph SSE5.6 kmh SSE 6.9 mph11.1 kmh 29.86 in1011.2 mb - 0.00 in0.0 mm 0.00 in0.0 mm
03:50 PM 45.6°F7.6°C 38.1°F3.4°C 75% 2.3 mph SSE3.7 kmh SSE 5.8 mph9.3 kmh 29.85 in1010.8 mb - 0.00 in0.0 mm 0.00 in0.0 mm
04:00 PM 45.2°F7.3°C 38.1°F3.4°C 76% 4.6 mph SE7.4 kmh SE 8.1 mph13.0 kmh 29.85 in1010.8 mb - 0.00 in0.0 mm 0.00 in0.0 mm
04:10 PM 44.9°F7.2°C 38.4°F3.6°C 78% 3.5 mph SE5.6 kmh SE 11.5 mph18.5 kmh 29.85 in1010.8 mb - 0.00 in0.0 mm 0.00 in0.0 mm
04:20 PM 44.3°F6.8°C 38.2°F3.4°C 79% 2.3 mph SE3.7 kmh SE 9.2 mph14.8 kmh 29.85 in1010.8 mb - 0.00 in0.0 mm 0.00 in0.0 mm
04:30 PM 43.7°F6.5°C 38.2°F3.4°C 81% 4.6 mph SE7.4 kmh SE 8.1 mph13.0 kmh 29.84 in1010.5 mb - 0.01 in0.3 mm 0.01 in0.3 mm
04:40 PM 43.0°F6.1°C 37.9°F3.3°C 82% 1.2 mph SSE1.9 kmh SSE 1.2 mph1.9 kmh 29.84 in1010.5 mb - 0.01 in0.3 mm 0.02 in0.5 mm
04:50 PM 42.6°F5.9°C 38.4°F3.6°C 85% Calm Calm 1.2 mph1.9 kmh 29.83 in1010.2 mb - 0.02 in0.5 mm 0.02 in0.5 mm
05:00 PM 42.3°F5.7°C 38.4°F3.6°C 86% 1.2 mph E1.9 kmh E 5.8 mph9.3 kmh 29.83 in1010.2 mb - 0.01 in0.3 mm 0.03 in0.8 mm
05:10 PM 41.9°F5.5°C 38.0°F3.3°C 86% 1.2 mph SE1.9 kmh SE 2.3 mph3.7 kmh 29.83 in1010.2 mb - 0.01 in0.3 mm 0.04 in1.0 mm
05:20 PM 41.6°F5.3°C 38.0°F3.3°C 87% 1.2 mph SE1.9 kmh SE 5.8 mph9.3 kmh 29.83 in1010.2 mb - 0.01 in0.3 mm 0.05 in1.3 mm
05:30 PM 41.4°F5.2°C 38.1°F3.4°C 88% 1.2 mph SE1.9 kmh SE 5.8 mph9.3 kmh 29.83 in1010.2 mb - 0.01 in0.3 mm 0.06 in1.5 mm
05:40 PM 41.2°F5.1°C 38.2°F3.4°C 89% Calm Calm -- 29.83 in1010.2 mb - 0.01 in0.3 mm 0.06 in1.5 mm
05:50 PM 41.0°F5.0°C 38.0°F3.3°C 89% 4.6 mph SE7.4 kmh SE 11.5 mph18.5 kmh 29.82 in1009.8 mb - 0.01 in0.3 mm 0.07 in1.8 mm
06:00 PM 40.6°F4.8°C 37.6°F3.1°C 89% 2.3 mph SE3.7 kmh SE 5.8 mph9.3 kmh 29.82 in1009.8 mb - 0.01 in0.3 mm 0.08 in2.0 mm
06:10 PM 40.4°F4.7°C 37.7°F3.2°C 90% 2.3 mph SE3.7 kmh SE 3.5 mph5.6 kmh 29.81 in1009.5 mb - 0.01 in0.3 mm 0.09 in2.3 mm
06:20 PM 40.2°F4.6°C 37.5°F3.1°C 90% 6.9 mph E11.1 kmh E 12.7 mph20.4 kmh 29.81 in1009.5 mb - 0.02 in0.5 mm 0.10 in2.5 mm
06:30 PM 39.8°F4.3°C 37.1°F2.8°C 90% 2.3 mph E3.7 kmh E 3.5 mph5.6 kmh 29.81 in1009.5 mb - 0.00 in0.0 mm 0.10 in2.5 mm
06:40 PM 39.7°F4.3°C 37.3°F2.9°C 91% 3.5 mph SE5.6 kmh SE 6.9 mph11.1 kmh 29.80 in1009.1 mb - 0.01 in0.3 mm 0.11 in2.8 mm
06:50 PM 39.6°F4.2°C 37.2°F2.9°C 91% 3.5 mph ESE5.6 kmh ESE 11.5 mph18.5 kmh 29.80 in1009.1 mb - 0.01 in0.3 mm 0.12 in3.0 mm
07:00 PM 39.5°F4.2°C 37.4°F3.0°C 92% Calm Calm 1.2 mph1.9 kmh 29.79 in1008.8 mb - 0.01 in0.3 mm 0.13 in3.3 mm
07:10 PM 39.5°F4.2°C 37.4°F3.0°C 92% 3.5 mph SE5.6 kmh SE 6.9 mph11.1 kmh 29.79 in1008.8 mb - 0.01 in0.3 mm 0.13 in3.3 mm
07:20 PM 39.4°F4.1°C 37.5°F3.1°C 93% 2.3 mph E3.7 kmh E 9.2 mph14.8 kmh 29.79 in1008.8 mb - 0.02 in0.5 mm 0.15 in3.8 mm
07:30 PM 39.2°F4.0°C 37.4°F3.0°C 93% 2.3 mph E3.7 kmh E 3.5 mph5.6 kmh 29.79 in1008.8 mb - 0.02 in0.5 mm 0.16 in4.1 mm
07:40 PM 39.2°F4.0°C 37.3°F2.9°C 93% 2.3 mph E3.7 kmh E 11.5 mph18.5 kmh 29.78 in1008.5 mb - 0.01 in0.3 mm 0.17 in4.3 mm
07:50 PM 39.1°F3.9°C 37.2°F2.9°C 93% 2.3 mph E3.7 kmh E 8.1 mph13.0 kmh 29.78 in1008.5 mb - 0.01 in0.3 mm 0.17 in4.3 mm
08:00 PM 39.0°F3.9°C 37.2°F2.9°C 93% 4.6 mph E7.4 kmh E 12.7 mph20.4 kmh 29.77 in1008.1 mb - 0.01 in0.3 mm 0.18 in4.6 mm
08:10 PM 39.0°F3.9°C 37.1°F2.8°C 93% 1.2 mph E1.9 kmh E 9.2 mph14.8 kmh 29.77 in1008.1 mb - 0.01 in0.3 mm 0.19 in4.8 mm
08:20 PM 39.1°F3.9°C 37.2°F2.9°C 93% 2.3 mph E3.7 kmh E 9.2 mph14.8 kmh 29.77 in1008.1 mb - 0.00 in0.0 mm 0.19 in4.8 mm
08:30 PM 39.1°F3.9°C 37.2°F2.9°C 93% 2.3 mph ESE3.7 kmh ESE 6.9 mph11.1 kmh 29.76 in1007.8 mb - 0.00 in0.0 mm 0.19 in4.8 mm
08:40 PM 39.1°F3.9°C 37.2°F2.9°C 93% 4.6 mph ESE7.4 kmh ESE 5.8 mph9.3 kmh 29.75 in1007.5 mb - 0.01 in0.3 mm 0.20 in5.1 mm
08:50 PM 39.2°F4.0°C 37.3°F2.9°C 93% 1.2 mph E1.9 kmh E 6.9 mph11.1 kmh 29.75 in1007.5 mb - 0.00 in0.0 mm 0.20 in5.1 mm
09:00 PM 39.3°F4.1°C 37.4°F3.0°C 93% 1.2 mph ESE1.9 kmh ESE 2.3 mph3.7 kmh 29.74 in1007.1 mb - 0.01 in0.3 mm 0.21 in5.3 mm
09:10 PM 39.5°F4.2°C 37.9°F3.3°C 94% 2.3 mph E3.7 kmh E 9.2 mph14.8 kmh 29.74 in1007.1 mb - 0.00 in0.0 mm 0.21 in5.3 mm
09:20 PM 39.7°F4.3°C 38.1°F3.4°C 94% 5.8 mph ESE9.3 kmh ESE 8.1 mph13.0 kmh 29.73 in1006.8 mb - 0.00 in0.0 mm 0.21 in5.3 mm
09:30 PM 39.8°F4.3°C 38.2°F3.4°C 94% 3.5 mph ESE5.6 kmh ESE 4.6 mph7.4 kmh 29.72 in1006.4 mb - 0.00 in0.0 mm 0.21 in5.3 mm
09:40 PM 40.0°F4.4°C 38.4°F3.6°C 94% Calm Calm 6.9 mph11.1 kmh 29.72 in1006.4 mb - 0.00 in0.0 mm 0.21 in5.3 mm
09:50 PM 40.2°F4.6°C 38.9°F3.8°C 95% 6.9 mph SE11.1 kmh SE 11.5 mph18.5 kmh 29.71 in1006.1 mb - 0.00 in0.0 mm 0.21 in5.3 mm
10:00 PM 40.5°F4.7°C 39.2°F4.0°C 95% 10.4 mph ESE16.7 kmh ESE 12.7 mph20.4 kmh 29.71 in1006.1 mb - 0.01 in0.3 mm 0.21 in5.3 mm
10:10 PM 40.8°F4.9°C 39.5°F4.2°C 95% 6.9 mph ESE11.1 kmh ESE 13.8 mph22.2 kmh 29.70 in1005.8 mb - 0.00 in0.0 mm 0.21 in5.3 mm
10:20 PM 41.1°F5.1°C 39.8°F4.3°C 95% 2.3 mph SE3.7 kmh SE 9.2 mph14.8 kmh 29.70 in1005.8 mb - 0.00 in0.0 mm 0.21 in5.3 mm
10:30 PM 41.3°F5.2°C 40.0°F4.4°C 95% 1.2 mph SE1.9 kmh SE 3.5 mph5.6 kmh 29.69 in1005.4 mb - 0.00 in0.0 mm 0.21 in5.3 mm
10:40 PM 41.6°F5.3°C 40.3°F4.6°C 95% 6.9 mph SE11.1 kmh SE 16.1 mph25.9 kmh 29.69 in1005.4 mb - 0.00 in0.0 mm 0.21 in5.3 mm
10:50 PM 41.9°F5.5°C 40.9°F4.9°C 96% 4.6 mph SE7.4 kmh SE 6.9 mph11.1 kmh 29.68 in1005.1 mb - 0.01 in0.3 mm 0.22 in5.6 mm
11:00 PM 42.2°F5.7°C 40.9°F4.9°C 95% 3.5 mph SE5.6 kmh SE 9.2 mph14.8 kmh 29.68 in1005.1 mb - 0.00 in0.0 mm 0.30 in7.6 mm
11:10 PM 42.5°F5.8°C 41.5°F5.3°C 96% 3.5 mph SE5.6 kmh SE 9.2 mph14.8 kmh 29.67 in1004.7 mb - 0.00 in0.0 mm 0.30 in7.6 mm
11:20 PM 42.9°F6.1°C 41.8°F5.4°C 96% 2.3 mph SE3.7 kmh SE 9.2 mph14.8 kmh 29.67 in1004.7 mb - 0.00 in0.0 mm 0.30 in7.6 mm
11:30 PM 43.1°F6.2°C 42.1°F5.6°C 96% 1.2 mph SE1.9 kmh SE 4.6 mph7.4 kmh 29.66 in1004.4 mb - 0.00 in0.0 mm 0.30 in7.6 mm
11:40 PM 43.3°F6.3°C 42.2°F5.7°C 96% 4.6 mph ESE7.4 kmh ESE 10.4 mph16.7 kmh 29.65 in1004.1 mb - 0.00 in0.0 mm 0.30 in7.6 mm
11:50 PM 43.6°F6.4°C 42.5°F5.8°C 96% 6.9 mph SSE11.1 kmh SSE 9.2 mph14.8 kmh 29.65 in1004.1 mb - 0.01 in0.3 mm 0.01 in0.3 mm